createdAt,value
2022-11-07T09:38:26.259Z,98712.38
2022-11-07T09:41:17.856Z,98723.78
2022-11-07T09:43:50.173Z,98723.22
2022-11-07T09:46:19.703Z,98729.94
2022-11-07T09:48:49.460Z,98715.69
2022-11-07T09:51:38.676Z,98728.91
2022-11-07T09:54:25.573Z,98730.25
2022-11-07T09:56:54.158Z,98716.09
2022-11-07T09:59:25.395Z,98725.31
2022-11-07T10:01:52.206Z,98732.84
2022-11-07T10:04:26.208Z,98736.19
2022-11-07T10:06:55.959Z,98732.91
2022-11-07T10:09:31.356Z,98733.75
2022-11-07T10:12:07.655Z,98739.06
2022-11-07T10:15:07.093Z,98739.88
2022-11-07T10:18:02.240Z,98747.03
2022-11-07T10:21:05.461Z,98742.25
2022-11-07T10:23:52.577Z,98753.28
2022-11-07T10:26:22.037Z,98749.63
2022-11-07T10:28:53.467Z,98744.47
2022-11-07T10:31:20.104Z,98753.28
2022-11-07T10:33:54.984Z,98748.94
2022-11-07T10:36:25.074Z,98746.97
2022-11-07T10:38:52.827Z,98755.50
2022-11-07T10:41:27.570Z,98755.06
2022-11-07T10:44:08.132Z,98747.38
2022-11-07T10:46:41.766Z,98751.56
2022-11-07T10:49:26.267Z,98753.84
2022-11-07T10:51:54.394Z,98750.72
2022-11-07T10:54:30.858Z,98744.63
2022-11-07T10:57:10.246Z,98742.50
2022-11-07T10:59:37.723Z,98746.69
2022-11-07T11:02:20.666Z,98740.97
2022-11-07T11:04:54.668Z,98733.56
2022-11-07T11:07:28.344Z,98727.38
2022-11-07T11:09:57.871Z,98728.50
2022-11-07T11:12:33.337Z,98733.41
2022-11-07T11:15:12.650Z,98723.19
2022-11-07T11:17:40.015Z,98722.44
2022-11-07T11:20:23.482Z,98727.56
2022-11-07T11:22:50.087Z,98721.50
2022-11-07T11:25:19.596Z,98729.34
2022-11-07T11:27:49.605Z,98733.50
2022-11-07T11:30:19.363Z,98723.41
2022-11-07T11:32:53.349Z,98723.69
2022-11-07T11:35:28.742Z,98720.38
2022-11-07T11:38:20.114Z,98737.91
2022-11-07T11:41:01.558Z,98731.50
2022-11-07T11:43:41.469Z,98745.09
2022-11-07T11:46:42.972Z,98740.94
2022-11-07T11:49:18.338Z,98747.16
2022-11-07T11:52:00.712Z,98740.00
2022-11-07T11:54:27.350Z,98734.69
2022-11-07T11:56:58.998Z,98729.78
2022-11-07T11:59:44.254Z,98730.31
2022-11-07T12:02:25.890Z,98722.56
2022-11-07T12:05:04.478Z,98738.69
2022-11-07T12:08:03.233Z,98727.06
2022-11-07T12:10:44.371Z,98718.69
2022-11-07T12:13:32.433Z,98721.34
2022-11-07T12:16:32.703Z,98727.34
2022-11-07T12:19:09.782Z,98720.38
2022-11-07T12:22:31.994Z,98721.13
2022-11-07T12:24:58.510Z,98708.94
2022-11-07T12:27:47.895Z,98715.19
2022-11-07T12:30:29.536Z,98715.66
2022-11-07T12:32:59.110Z,98710.19
2022-11-07T12:36:18.015Z,98711.56
2022-11-07T12:39:21.411Z,98706.00
2022-11-07T12:42:08.058Z,98710.56
2022-11-07T12:45:21.395Z,98698.00
2022-11-07T12:48:26.164Z,98703.44
2022-11-07T12:51:21.002Z,98718.38
2022-11-07T12:53:50.222Z,98706.50
2022-11-07T12:56:31.808Z,98710.41
2022-11-07T12:59:00.699Z,98707.91
2022-11-07T13:01:40.867Z,98713.22
2022-11-07T13:04:18.588Z,98714.00
2022-11-07T13:07:19.497Z,98700.31
2022-11-07T13:09:54.991Z,98711.94
2022-11-07T13:12:44.721Z,98705.53
2022-11-07T13:15:13.438Z,98703.34
2022-11-07T13:17:46.066Z,98710.63
2022-11-07T13:20:21.765Z,98705.47
2022-11-07T13:22:50.655Z,98706.97
2022-11-07T13:25:17.722Z,98703.03
2022-11-07T13:28:04.885Z,98702.22
2022-11-07T13:30:35.289Z,98707.53
2022-11-07T13:33:02.884Z,98714.69
2022-11-07T13:35:32.458Z,98710.63
2022-11-07T13:38:14.806Z,98718.47
2022-11-07T13:40:49.016Z,98721.28
2022-11-07T13:43:24.271Z,98712.00
2022-11-07T13:45:55.874Z,98719.31
2022-11-07T13:49:06.783Z,98722.44
2022-11-07T13:51:42.739Z,98714.97
2022-11-07T13:54:40.355Z,98716.50
2022-11-07T13:57:31.537Z,98727.56
2022-11-07T14:00:14.587Z,98723.56
2022-11-07T14:02:51.444Z,98733.75
2022-11-07T14:05:21.125Z,98730.41
2022-11-07T14:08:18.864Z,98739.53
2022-11-07T14:10:48.508Z,98736.97
2022-11-07T14:13:41.336Z,98733.06
2022-11-07T14:16:15.572Z,98741.34
2022-11-07T14:18:56.826Z,98743.97
2022-11-07T14:21:28.125Z,98752.59
2022-11-07T14:23:55.148Z,98756.81
2022-11-07T14:26:30.856Z,98751.81
2022-11-07T14:29:00.679Z,98756.53
2022-11-07T14:31:32.898Z,98753.78
2022-11-07T14:34:03.089Z,98747.84
2022-11-07T14:36:30.502Z,98744.91
2022-11-07T14:39:03.856Z,98753.19
2022-11-07T14:41:30.763Z,98755.94
2022-11-07T14:44:02.054Z,98756.53
2022-11-07T14:46:28.833Z,98753.31
2022-11-07T14:48:55.731Z,98763.53
2022-11-07T14:51:26.232Z,98766.03
2022-11-07T14:53:52.742Z,98759.34
2022-11-07T14:56:23.805Z,98762.16
2022-11-07T14:58:50.547Z,98763.72
2022-11-07T15:01:34.531Z,98760.00
2022-11-07T15:04:27.146Z,98750.03
2022-11-07T15:06:53.704Z,98761.75
2022-11-07T15:09:30.997Z,98750.88
2022-11-07T15:11:59.370Z,98762.06
2022-11-07T15:14:35.713Z,98758.31
2022-11-07T15:17:06.041Z,98761.66
2022-11-07T15:19:35.157Z,98760.81
2022-11-07T15:22:04.508Z,98756.91
2022-11-07T15:24:33.316Z,98752.59
2022-11-07T15:27:06.251Z,98756.06
2022-11-07T15:29:36.087Z,98772.34
2022-11-07T15:32:15.548Z,98758.34
2022-11-07T15:35:00.737Z,98761.19
2022-11-07T15:37:28.957Z,98769.31
2022-11-07T15:39:55.639Z,98766.38
2022-11-07T15:42:22.234Z,98764.00
2022-11-07T15:44:48.819Z,98764.31
2022-11-07T15:47:19.323Z,98767.94
2022-11-07T15:49:46.682Z,98767.38
2022-11-07T15:52:13.541Z,98772.16
2022-11-07T15:54:40.274Z,98768.06
2022-11-07T15:57:08.179Z,98773.53
2022-11-07T15:59:37.112Z,98780.97
2022-11-07T16:02:04.582Z,98782.94
2022-11-07T16:04:33.386Z,98785.06
2022-11-07T16:07:03.254Z,98777.34
2022-11-07T16:09:32.898Z,98784.22
2022-11-07T16:11:59.547Z,98786.75
2022-11-07T16:17:18.253Z,98791.22
2022-11-07T16:19:45.083Z,98789.53
2022-11-07T16:22:16.112Z,98797.66
2022-11-07T16:24:42.840Z,98803.28
2022-11-07T16:27:15.916Z,98801.44
2022-11-07T16:29:44.242Z,98792.19
2022-11-07T16:32:17.943Z,98794.72
2022-11-07T16:34:45.609Z,98789.28
2022-11-07T16:37:12.501Z,98798.78
2022-11-07T16:39:39.115Z,98804.09
2022-11-07T16:42:05.956Z,98803.41
2022-11-07T16:44:32.607Z,98802.28
2022-11-07T16:47:05.719Z,98800.44
2022-11-07T16:49:33.665Z,98796.53
2022-11-07T16:52:00.396Z,98790.25
2022-11-07T16:54:27.002Z,98794.84
